Time;durP1;ratioP1;P1;durP2;ratioP2;P2;SDS_P1;SDS_P2;PMS_P1;PMS_P2;Temp;Humidity;BMP_temperature;BMP_pressure;BME280_temperature;BME280_humidity;BME280_pressure;Samples;Min_cycle;Max_cycle;Signal;HPM_P1;HPM_P2
2022/12/14 00:00:52;;;;;;;33.28;17.90;;;;;;;1.11;76.20;94848.56;5084669;28;20047;-79
2022/12/14 00:03:17;;;;;;;37.55;19.33;;;;;;;0.67;76.19;94768.88;5104234;28;20047;-79
2022/12/14 00:05:43;;;;;;;36.72;19.10;;;;;;;1.05;75.87;94815.53;5102919;28;20117;-79
2022/12/14 00:08:10;;;;;;;37.08;18.80;;;;;;;1.17;76.04;94852.91;5103848;28;20468;-79
2022/12/14 00:10:37;;;;;;;37.95;18.58;;;;;;;0.86;76.31;94809.56;5084622;28;20795;-79
2022/12/14 00:13:04;;;;;;;35.58;18.58;;;;;;;1.32;76.09;94874.19;5103296;28;20070;-79
2022/12/14 00:15:30;;;;;;;35.70;17.92;;;;;;;1.09;76.59;94858.44;5085125;28;20074;-79
2022/12/14 00:17:56;;;;;;;36.78;19.95;;;;;;;0.90;76.97;94842.03;5102857;28;20048;-79
2022/12/14 00:20:22;;;;;;;33.22;17.88;;;;;;;0.87;76.71;94831.22;5103382;28;20048;-79
2022/12/14 00:22:47;;;;;;;38.28;17.70;;;;;;;1.75;76.67;94956.81;5102816;28;20115;-79
2022/12/14 00:25:12;;;;;;;33.03;17.40;;;;;;;1.12;76.26;94877.09;5084156;28;20047;-79
2022/12/14 00:27:46;;;;;;;32.10;17.05;;;;;;;1.39;76.42;94915.91;5103452;28;20142;-79
2022/12/14 00:30:13;;;;;;;28.95;15.50;;;;;;;1.31;76.38;94896.09;5103160;28;20043;-79
2022/12/14 00:32:39;;;;;;;27.23;15.25;;;;;;;1.49;76.41;94918.78;5102163;28;20548;-79
2022/12/14 00:35:10;;;;;;;28.13;15.25;;;;;;;1.64;76.63;94942.69;5084918;28;20042;-79
2022/12/14 00:37:36;;;;;;;28.55;16.08;;;;;;;1.49;76.17;94927.41;5101869;28;20059;-79
2022/12/14 00:40:04;;;;;;;24.77;13.82;;;;;;;1.63;75.79;94941.09;5102609;28;20127;-79
2022/12/14 00:42:29;;;;;;;30.70;14.90;;;;;;;0.68;75.58;94805.19;5103357;28;20815;-79
2022/12/14 00:44:54;;;;;;;28.05;14.40;;;;;;;1.58;76.01;94948.00;5103428;28;20058;-79
2022/12/14 00:47:20;;;;;;;26.38;13.95;;;;;;;1.61;75.94;94945.72;5083964;28;20059;-79
2022/12/14 00:49:45;;;;;;;26.13;14.20;;;;;;;0.73;75.45;94799.28;5102928;28;20055;-79
2022/12/14 00:52:11;;;;;;;25.42;14.18;;;;;;;0.75;76.42;94850.28;5084569;28;20036;-79
2022/12/14 00:54:36;;;;;;;25.67;14.18;;;;;;;1.09;75.68;94889.78;5086042;28;20044;-79
2022/12/14 00:57:02;;;;;;;20.80;12.65;;;;;;;1.10;75.72;94892.19;5087397;28;20099;-79
2022/12/14 00:59:27;;;;;;;21.48;13.23;;;;;;;1.20;75.63;94896.06;5103449;28;20126;-79
2022/12/14 01:01:53;;;;;;;20.55;11.98;;;;;;;1.13;75.99;94886.53;5083814;28;20047;-79
2022/12/14 01:04:20;;;;;;;24.38;13.63;;;;;;;0.80;75.86;94849.59;5103813;28;20126;-79
2022/12/14 01:06:48;;;;;;;21.45;13.15;;;;;;;1.55;76.47;94955.25;5103663;28;20032;-79
2022/12/14 01:09:13;;;;;;;19.83;12.25;;;;;;;1.48;76.09;94951.94;5103155;28;20043;-79
2022/12/14 01:11:40;;;;;;;20.75;12.52;;;;;;;1.51;75.96;94954.13;5102828;28;20086;-79
2022/12/14 01:14:06;;;;;;;27.20;12.35;;;;;;;1.09;75.98;94881.94;5083723;28;20047;-79
2022/12/14 01:16:32;;;;;;;26.10;13.77;;;;;;;0.73;76.24;94843.66;5101859;28;20035;-79
2022/12/14 01:18:59;;;;;;;19.98;11.57;;;;;;;1.04;77.23;94910.56;5084051;28;20047;-79
2022/12/14 01:21:25;;;;;;;21.55;11.45;;;;;;;1.30;77.02;94956.44;5084265;28;20046;-79
2022/12/14 01:23:52;;;;;;;20.95;10.73;;;;;;;1.01;77.20;94911.78;5083144;28;20051;-80
2022/12/14 01:26:21;;;;;;;17.17;10.00;;;;;;;1.21;76.66;94953.34;5101590;28;20633;-79
2022/12/14 01:28:51;;;;;;;20.80;10.73;;;;;;;0.89;76.80;94903.09;5101909;28;20048;-79
2022/12/14 01:31:18;;;;;;;17.15;10.18;;;;;;;1.04;77.07;94918.38;5102449;28;20472;-79
2022/12/14 01:33:44;;;;;;;18.27;11.05;;;;;;;1.06;77.64;94945.88;5101731;28;20058;-79
2022/12/14 01:36:14;;;;;;;17.70;11.38;;;;;;;0.31;77.70;94822.69;5077474;28;20044;-79
2022/12/14 01:38:39;;;;;;;17.73;11.65;;;;;;;0.59;78.16;94879.56;5080284;28;20046;-79
2022/12/14 01:41:07;;;;;;;19.10;11.75;;;;;;;1.01;77.74;94931.88;5102753;28;20039;-79
2022/12/14 01:43:52;;;;;;;18.92;11.32;;;;;;;0.70;78.10;94860.56;5101557;28;20043;-79
2022/12/14 01:46:25;;;;;;;21.13;11.18;;;;;;;0.62;78.29;94836.56;5083644;28;20055;-79
2022/12/14 01:48:54;;;;;;;23.08;12.18;;;;;;;1.06;78.52;94922.38;5083453;28;20039;-79
2022/12/14 01:51:21;;;;;;;20.35;10.95;;;;;;;0.13;78.90;94796.63;5083558;28;20493;-79
2022/12/14 01:53:47;;;;;;;26.00;10.38;;;;;;;1.09;78.23;94924.53;5102670;28;20051;-79
2022/12/14 01:56:13;;;;;;;19.25;10.35;;;;;;;0.24;78.03;94795.09;5102051;28;20044;-79
2022/12/14 01:58:39;;;;;;;19.85;11.40;;;;;;;0.48;78.06;94833.31;5101921;28;20075;-80
2022/12/14 02:01:04;;;;;;;19.65;10.68;;;;;;;1.09;77.96;94911.47;5083922;28;20501;-79
2022/12/14 02:03:36;;;;;;;22.42;11.23;;;;;;;1.02;78.34;94929.03;5083961;28;20035;-78
2022/12/14 02:06:06;;;;;;;18.10;10.70;;;;;;;1.12;78.21;94918.09;5102070;28;20067;-78
2022/12/14 02:08:32;;;;;;;18.63;10.77;;;;;;;0.44;77.93;94805.28;5082728;28;20082;-80
2022/12/14 02:10:59;;;;;;;20.00;11.13;;;;;;;0.56;78.25;94827.00;5102071;28;20151;-79
2022/12/14 02:13:31;;;;;;;20.75;11.55;;;;;;;0.66;78.95;94872.47;5082925;28;20031;-78
2022/12/14 02:15:56;;;;;;;18.73;11.30;;;;;;;0.91;79.05;94908.91;5100888;28;20130;-78
2022/12/14 02:18:27;;;;;;;16.45;10.57;;;;;;;0.31;78.84;94801.00;5101493;28;20169;-78
2022/12/14 02:21:16;;;;;;;18.90;10.95;;;;;;;1.05;78.26;94904.31;5101628;28;20494;-78
2022/12/14 02:24:29;;;;;;;21.15;12.00;;;;;;;0.66;78.09;94837.72;5083712;28;20113;-78
2022/12/14 02:27:30;;;;;;;17.98;10.43;;;;;;;1.04;78.14;94893.06;5101411;28;20153;-80
2022/12/14 02:30:26;;;;;;;22.05;10.35;;;;;;;0.85;77.99;94869.81;5045445;28;20450;-78
2022/12/14 02:33:20;;;;;;;20.17;11.00;;;;;;;-0.06;77.91;94737.66;5093294;28;20074;-78
2022/12/14 02:36:07;;;;;;;22.50;10.98;;;;;;;0.56;77.45;94814.75;5083215;28;20150;-78
2022/12/14 02:38:32;;;;;;;16.17;10.35;;;;;;;1.07;77.75;94889.19;5083205;28;20529;-78
2022/12/14 02:41:07;;;;;;;19.60;10.98;;;;;;;1.10;76.89;94892.19;5102933;28;20079;-79
2022/12/14 02:43:48;;;;;;;22.58;11.90;;;;;;;0.96;76.94;94889.97;5102542;28;20039;-80
2022/12/14 02:46:22;;;;;;;21.35;10.63;;;;;;;0.81;77.37;94886.94;5097504;28;20059;-79
2022/12/14 02:49:02;;;;;;;18.30;9.68;;;;;;;0.61;77.60;94856.66;5085196;28;20036;-79
2022/12/14 02:51:51;;;;;;;16.65;10.35;;;;;;;0.85;77.39;94885.47;5084130;28;20052;-78
2022/12/14 02:54:27;;;;;;;18.63;10.70;;;;;;;0.56;77.31;94827.81;5085473;28;20052;-79
2022/12/14 02:57:10;;;;;;;15.65;9.23;;;;;;;0.16;77.13;94779.72;5082993;28;20043;-79
2022/12/14 02:59:36;;;;;;;19.95;10.05;;;;;;;0.93;76.92;94875.53;5083869;28;20135;-78
2022/12/14 03:02:03;;;;;;;15.48;9.93;;;;;;;0.36;76.71;94775.88;5083309;28;20154;-78
2022/12/14 03:04:29;;;;;;;20.10;10.52;;;;;;;0.96;76.60;94879.53;5065999;28;20050;-78
2022/12/14 03:07:21;;;;;;;18.10;10.15;;;;;;;0.77;76.58;94853.44;5084566;28;20048;-79
2022/12/14 03:09:46;;;;;;;20.65;9.30;;;;;;;0.04;76.09;94751.00;5066671;28;20066;-78
2022/12/14 03:12:16;;;;;;;17.00;9.48;;;;;;;0.88;75.88;94878.00;5082895;28;20048;-79
2022/12/14 03:14:47;;;;;;;16.13;9.43;;;;;;;0.98;76.16;94895.78;5085033;28;20047;-79
2022/12/14 03:17:20;;;;;;;20.23;11.77;;;;;;;1.02;75.91;94892.50;5082614;28;20139;-78
2022/12/14 03:20:01;;;;;;;19.77;11.10;;;;;;;0.86;76.05;94890.47;5084686;28;20040;-79
2022/12/14 03:22:33;;;;;;;20.85;12.32;;;;;;;-0.42;75.84;94660.31;5084951;28;20362;-79
2022/12/14 03:25:07;;;;;;;22.65;12.90;;;;;;;0.55;75.86;94814.97;5083838;28;20112;-79
2022/12/14 03:27:43;;;;;;;25.58;14.20;;;;;;;0.38;75.91;94817.41;5084878;28;20048;-78
2022/12/14 03:30:13;;;;;;;19.42;11.93;;;;;;;0.93;75.80;94874.72;5083564;28;20692;-78
2022/12/14 03:32:46;;;;;;;21.55;11.48;;;;;;;0.27;75.93;94760.75;5084941;28;20036;-78
2022/12/14 03:35:38;;;;;;;23.10;11.55;;;;;;;-0.32;75.49;94696.28;5083055;28;20900;-79
2022/12/14 03:38:10;;;;;;;18.25;10.68;;;;;;;0.89;75.56;94881.41;5069018;28;20058;-79
2022/12/14 03:40:45;;;;;;;21.05;11.75;;;;;;;0.82;75.75;94870.28;5084374;28;20086;-78
2022/12/14 03:43:16;;;;;;;19.20;11.63;;;;;;;0.62;76.28;94873.09;5084856;28;20488;-78
2022/12/14 03:46:01;;;;;;;15.65;10.40;;;;;;;0.11;76.14;94766.56;5083428;28;20066;-78
2022/12/14 03:48:30;;;;;;;18.02;10.68;;;;;;;0.59;76.06;94887.41;5081316;28;20794;-78
2022/12/14 03:50:59;;;;;;;21.17;11.65;;;;;;;0.68;75.70;94883.50;5083606;28;20040;-79
2022/12/14 03:53:50;;;;;;;21.70;11.60;;;;;;;-1.87;75.79;94456.25;5081862;28;20043;-79
2022/12/14 03:56:25;;;;;;;17.73;10.48;;;;;;;0.94;75.64;94871.09;5072937;28;20098;-79
2022/12/14 03:59:32;;;;;;;17.67;10.63;;;;;;;0.92;76.07;94865.28;5080956;28;20055;-78
2022/12/14 04:02:11;;;;;;;22.92;11.68;;;;;;;0.86;76.31;94848.72;5082967;28;20128;-78
2022/12/14 04:04:53;;;;;;;22.35;12.52;;;;;;;1.05;75.81;94879.00;5081910;28;20128;-78
2022/12/14 04:07:36;;;;;;;19.38;11.48;;;;;;;0.36;75.67;94760.25;5079081;28;20048;-79
2022/12/14 04:18:58;;;;;;;18.08;9.43;;;;;;;0.45;75.39;94781.59;5083984;28;20353;-78
2022/12/14 04:21:42;;;;;;;;;;;;;;;1.06;74.54;94874.56;5082475;28;20059;-78
2022/12/14 04:27:37;;;;;;;14.10;8.32;;;;;;;1.08;74.57;94881.16;5083512;28;20394;-78
2022/12/14 04:30:05;;;;;;;19.50;9.55;;;;;;;0.90;74.58;94828.19;5079753;28;20044;-79
2022/12/14 04:32:54;;;;;;;15.18;9.50;;;;;;;1.16;74.52;94866.97;5083581;28;20048;-78
2022/12/14 04:35:27;;;;;;;15.35;8.82;;;;;;;0.88;74.70;94830.22;5083359;28;20040;-78
2022/12/14 04:38:12;;;;;;;16.33;9.10;;;;;;;0.82;74.83;94839.75;5082307;28;20056;-79
2022/12/14 04:40:43;;;;;;;14.68;9.30;;;;;;;0.77;74.64;94824.72;5083232;28;20039;-78
2022/12/14 04:43:14;;;;;;;15.48;9.07;;;;;;;-0.04;74.60;94683.50;5081448;28;20044;-79
2022/12/14 04:45:45;;;;;;;14.05;8.77;;;;;;;0.57;74.39;94771.19;5082901;28;20047;-79
2022/12/14 04:48:14;;;;;;;;;;;;;;;1.33;74.71;94894.06;5082362;28;20044;-79
2022/12/14 04:50:46;;;;;;;13.93;8.93;;;;;;;0.54;74.38;94769.81;5078192;28;19921;-79
2022/12/14 04:53:20;;;;;;;14.95;8.93;;;;;;;0.59;74.48;94783.03;5080825;28;20048;-79
2022/12/14 04:55:51;;;;;;;14.65;10.07;;;;;;;0.39;74.19;94772.03;5080825;28;20047;-79
2022/12/14 04:58:29;;;;;;;13.77;8.80;;;;;;;0.52;74.38;94758.03;5080425;28;20077;-79
2022/12/14 05:01:00;;;;;;;15.02;9.18;;;;;;;1.28;74.90;94890.53;5082096;28;20047;-79
2022/12/14 05:03:33;;;;;;;21.67;10.20;;;;;;;1.11;74.14;94874.69;5081060;28;20198;-78
2022/12/14 05:06:26;;;;;;;15.38;9.23;;;;;;;0.80;74.25;94818.28;5080153;28;20118;-79
2022/12/14 05:09:02;;;;;;;16.27;9.95;;;;;;;1.12;74.37;94856.19;5059512;28;20155;-79
2022/12/14 05:11:33;;;;;;;17.90;10.27;;;;;;;0.62;74.62;94790.38;5079411;28;20036;-79
2022/12/14 05:13:59;;;;;;;18.00;10.07;;;;;;;1.32;74.52;94895.09;5074367;28;20131;-79
2022/12/14 05:16:25;;;;;;;18.52;10.00;;;;;;;0.52;74.43;94771.06;5059421;28;20419;-79
2022/12/14 05:18:51;;;;;;;17.02;9.93;;;;;;;0.96;74.20;94835.13;5072994;28;20040;-80
2022/12/14 05:24:08;;;;;;;18.27;9.82;;;;;;;0.91;74.06;94838.41;5075450;28;20086;-79
2022/12/14 05:26:33;;;;;;;20.80;10.10;;;;;;;0.91;74.55;94837.63;5069878;28;20529;-79
2022/12/14 05:28:59;;;;;;;18.15;10.55;;;;;;;0.43;74.28;94778.41;5073878;28;20059;-79
2022/12/14 05:31:24;;;;;;;17.05;9.40;;;;;;;1.34;74.19;94907.94;5067905;28;20137;-80
2022/12/14 05:33:50;;;;;;;20.08;9.32;;;;;;;0.53;73.30;94791.75;5069231;28;20052;-79
2022/12/14 05:36:15;;;;;;;15.77;9.63;;;;;;;0.59;73.54;94808.31;5068509;28;20079;-79
2022/12/14 05:38:41;;;;;;;15.90;9.18;;;;;;;1.01;73.67;94883.06;5073597;28;20728;-79
2022/12/14 05:41:06;;;;;;;17.88;10.05;;;;;;;1.16;72.82;94891.28;5076444;28;20120;-80
2022/12/14 05:43:33;;;;;;;19.25;9.43;;;;;;;0.89;72.72;94863.94;5068493;28;20055;-79
2022/12/14 05:46:00;;;;;;;17.08;9.65;;;;;;;0.64;72.97;94814.47;5069585;28;20411;-80
2022/12/14 05:48:26;;;;;;;18.42;10.02;;;;;;;0.84;73.85;94847.34;5071841;28;20445;-79
2022/12/14 05:50:51;;;;;;;17.10;10.20;;;;;;;0.95;73.37;94870.88;5070444;28;20050;-80
2022/12/14 05:53:17;;;;;;;21.52;10.65;;;;;;;0.86;73.55;94866.97;5070197;28;20596;-79
2022/12/14 05:55:51;;;;;;;17.30;10.57;;;;;;;0.73;73.50;94834.03;5070264;28;20823;-81
2022/12/14 05:58:17;;;;;;;18.45;10.60;;;;;;;1.18;73.72;94922.41;5066631;28;20047;-80
2022/12/14 06:00:43;;;;;;;19.77;10.27;;;;;;;0.73;73.88;94854.09;5068160;28;20645;-80
2022/12/14 06:03:09;;;;;;;19.35;11.38;;;;;;;1.14;73.88;94913.44;5060279;28;20041;-81
2022/12/14 06:05:34;;;;;;;18.67;10.68;;;;;;;1.16;73.53;94909.56;4826245;28;20053;-80
2022/12/14 06:08:00;;;;;;;20.35;10.85;;;;;;;0.36;75.03;94812.41;4980548;28;20038;-80
2022/12/14 06:10:25;;;;;;;23.52;12.75;;;;;;;0.48;74.78;94827.31;4986651;28;20101;-82
2022/12/14 06:12:51;;;;;;;27.23;13.02;;;;;;;0.32;76.57;94824.28;4990529;28;20109;-82
2022/12/14 06:15:16;;;;;;;25.50;14.48;;;;;;;1.16;76.08;94938.31;4980052;28;20910;-84
2022/12/14 06:17:43;;;;;;;24.27;14.27;;;;;;;0.27;76.51;94799.88;4986931;28;20124;-83
2022/12/14 06:20:09;;;;;;;27.33;15.63;;;;;;;0.20;76.92;94796.53;4984942;28;20070;-81
2022/12/14 06:22:39;;;;;;;26.70;16.05;;;;;;;1.21;77.11;94937.66;4972660;28;20141;-82
2022/12/14 06:25:05;;;;;;;26.63;15.30;;;;;;;-3.08;77.13;94302.66;4993022;28;20709;-83
2022/12/14 06:27:30;;;;;;;27.90;16.35;;;;;;;0.44;78.21;94850.44;4989786;28;20080;-81
2022/12/14 06:29:56;;;;;;;27.45;16.60;;;;;;;-0.62;78.07;94683.19;5002265;28;20064;-80
2022/12/14 06:32:22;;;;;;;30.25;17.63;;;;;;;0.34;78.03;94843.13;4992034;28;20042;-82
2022/12/14 06:34:47;;;;;;;28.13;16.80;;;;;;;0.03;78.34;94775.47;4983719;28;20041;-82
2022/12/14 06:37:13;;;;;;;29.95;16.90;;;;;;;0.09;78.55;94808.50;4993304;28;20050;-82
2022/12/14 06:39:38;;;;;;;27.83;17.00;;;;;;;0.70;78.58;94897.09;4992845;28;20069;-82
2022/12/14 06:42:05;;;;;;;30.45;16.67;;;;;;;0.52;78.68;94881.47;4988189;28;20052;-80
2022/12/14 06:44:30;;;;;;;34.22;18.02;;;;;;;1.01;79.12;94958.78;4983112;28;20117;-80
2022/12/14 06:46:56;;;;;;;32.25;17.88;;;;;;;0.66;78.77;94897.75;4988693;28;20046;-80
2022/12/14 06:49:21;;;;;;;29.05;17.02;;;;;;;0.85;78.85;94927.25;4989822;28;20042;-79
2022/12/14 06:51:47;;;;;;;32.35;18.85;;;;;;;1.00;79.11;94954.56;4996349;28;20581;-80
2022/12/14 06:54:15;;;;;;;38.40;21.30;;;;;;;0.86;79.05;94939.28;4993161;28;20046;-84
2022/12/14 06:56:42;;;;;;;39.45;21.50;;;;;;;0.61;79.40;94903.63;4969470;28;20125;-83
2022/12/14 06:59:08;;;;;;;34.20;18.92;;;;;;;0.33;79.87;94861.59;4994243;28;20137;-82
2022/12/14 07:01:35;;;;;;;34.40;18.58;;;;;;;0.97;79.80;94965.47;4992186;28;20165;-82
2022/12/14 07:04:01;;;;;;;30.98;18.63;;;;;;;0.72;79.75;94943.88;4989858;28;20187;-80
2022/12/14 07:06:30;;;;;;;36.97;18.30;;;;;;;0.67;79.84;94954.97;4988946;28;20738;-82
2022/12/14 07:08:57;;;;;;;36.38;20.30;;;;;;;0.46;79.77;94915.47;5008366;28;20100;-82
2022/12/14 07:11:24;;;;;;;41.70;22.58;;;;;;;0.65;79.52;94943.94;4992188;28;20567;-81
2022/12/14 07:13:50;;;;;;;31.98;19.08;;;;;;;0.19;79.96;94891.44;4993429;28;20041;-83
2022/12/14 07:16:18;;;;;;;31.08;18.00;;;;;;;0.65;79.87;94951.78;4990706;28;20065;-83
2022/12/14 07:18:43;;;;;;;34.83;19.13;;;;;;;0.35;79.94;94889.06;4990329;28;20836;-83
2022/12/14 07:21:11;;;;;;;32.00;19.45;;;;;;;0.92;80.16;94975.75;4989757;28;20121;-82
2022/12/14 07:23:39;;;;;;;38.55;20.73;;;;;;;0.94;80.53;94975.53;4985718;28;20037;-81
2022/12/14 07:26:06;;;;;;;33.90;19.25;;;;;;;0.85;80.33;94948.13;4984030;28;20077;-83
2022/12/14 07:28:32;;;;;;;38.15;19.88;;;;;;;0.07;79.95;94849.66;4989812;28;20038;-81
2022/12/14 07:30:59;;;;;;;39.80;20.17;;;;;;;0.40;79.55;94898.84;4987242;28;20048;-82
2022/12/14 07:33:26;;;;;;;41.17;19.70;;;;;;;0.20;80.31;94880.81;4993180;28;20162;-82
2022/12/14 07:35:59;;;;;;;31.52;18.70;;;;;;;0.94;79.87;94983.38;4985569;28;20092;-81
2022/12/14 07:38:25;;;;;;;35.63;19.50;;;;;;;0.93;79.29;94968.72;4988210;28;20120;-81
2022/12/14 07:40:50;;;;;;;32.28;19.33;;;;;;;0.39;79.52;94876.38;4981226;28;20254;-80
2022/12/14 07:43:17;;;;;;;34.03;19.45;;;;;;;0.48;79.50;94889.94;4991065;28;20405;-81
2022/12/14 07:45:43;;;;;;;40.67;19.63;;;;;;;0.47;79.55;94883.13;4988983;28;20077;-83
2022/12/14 07:48:08;;;;;;;34.63;19.27;;;;;;;1.05;79.21;94980.03;4990530;28;20840;-82
2022/12/14 07:50:34;;;;;;;38.45;20.45;;;;;;;1.27;78.65;94986.41;4993552;28;20069;-81
2022/12/14 07:52:59;;;;;;;35.50;17.60;;;;;;;0.73;78.83;94914.13;4988174;28;20065;-82
2022/12/14 07:55:25;;;;;;;29.40;18.27;;;;;;;0.98;78.81;94942.78;4987268;28;20053;-82
2022/12/14 07:57:50;;;;;;;29.63;17.30;;;;;;;0.24;78.70;94832.41;4989240;28;20046;-82
2022/12/14 08:00:16;;;;;;;27.55;16.55;;;;;;;0.97;79.20;94962.88;4992090;28;20153;-82
2022/12/14 08:02:42;;;;;;;35.15;19.13;;;;;;;0.98;78.87;94946.19;4988833;28;20749;-80
2022/12/14 08:05:08;;;;;;;34.00;19.40;;;;;;;0.48;78.67;94867.25;4988246;28;20143;-81
2022/12/14 08:07:33;;;;;;;37.85;20.17;;;;;;;0.04;78.31;94795.31;4983643;28;20848;-82
2022/12/14 08:09:59;;;;;;;45.67;21.20;;;;;;;0.77;78.36;94917.91;4998280;28;20046;-82
2022/12/14 08:12:24;;;;;;;47.80;20.45;;;;;;;0.75;78.26;94925.16;4984562;28;20030;-81
2022/12/14 08:14:50;;;;;;;44.15;21.42;;;;;;;0.88;78.35;94939.88;4985495;28;20053;-82
2022/12/14 08:17:16;;;;;;;32.72;19.30;;;;;;;1.00;78.60;94977.28;4986484;28;20477;-81
2022/12/14 08:19:41;;;;;;;37.50;19.08;;;;;;;0.61;79.09;94911.44;4989403;28;20803;-82
2022/12/14 08:22:07;;;;;;;34.00;18.77;;;;;;;0.85;79.78;94977.66;4983831;28;20053;-83
2022/12/14 08:24:32;;;;;;;49.53;19.75;;;;;;;0.20;79.98;94904.28;4988714;28;20484;-81
2022/12/14 08:26:57;;;;;;;34.22;21.00;;;;;;;0.33;79.59;94882.47;4991701;28;20049;-82
2022/12/14 08:29:23;;;;;;;36.10;18.65;;;;;;;0.33;80.02;94903.34;4990821;28;20115;-82
2022/12/14 08:31:49;;;;;;;37.75;19.55;;;;;;;1.05;79.73;94990.50;4992770;28;20046;-83
2022/12/14 08:34:21;;;;;;;51.85;21.77;;;;;;;1.11;79.54;94979.97;4990865;28;20038;-82
2022/12/14 08:36:47;;;;;;;43.28;22.25;;;;;;;1.03;79.01;94955.97;4993779;28;20041;-84
2022/12/14 08:39:12;;;;;;;35.40;21.33;;;;;;;1.31;78.78;95016.28;4995387;28;20045;-83
2022/12/14 08:41:37;;;;;;;34.20;19.25;;;;;;;0.95;79.38;94967.50;5007499;28;20052;-83
2022/12/14 08:44:03;;;;;;;34.53;20.60;;;;;;;1.00;79.53;94951.16;4987508;28;20088;-84
2022/12/14 08:46:30;;;;;;;39.35;21.05;;;;;;;0.54;79.61;94891.66;4987822;28;20826;-83
2022/12/14 08:48:57;;;;;;;31.95;18.80;;;;;;;0.50;78.89;94873.06;4991388;28;20076;-83
2022/12/14 08:51:25;;;;;;;36.60;19.23;;;;;;;0.33;79.06;94872.03;4988965;28;20208;-89
2022/12/14 08:53:55;;;;;;;35.78;20.48;;;;;;;1.26;79.24;95004.91;4986925;28;20144;-84
2022/12/14 08:56:23;;;;;;;30.60;17.70;;;;;;;1.30;79.08;95006.09;4986879;28;20693;-84
2022/12/14 08:58:48;;;;;;;33.03;17.95;;;;;;;0.82;78.80;94909.44;4988749;28;21001;-82
2022/12/14 09:01:18;;;;;;;39.30;19.08;;;;;;;1.63;78.67;95010.88;4985657;28;20502;-81
2022/12/14 09:03:45;;;;;;;34.80;18.33;;;;;;;0.82;78.42;94893.75;4990648;28;20531;-82
2022/12/14 09:06:15;;;;;;;33.25;17.27;;;;;;;1.43;78.85;94946.59;5002786;28;20042;-82
2022/12/14 09:08:41;;;;;;;37.38;18.63;;;;;;;1.37;78.54;94907.50;4988014;28;20053;-81
2022/12/14 09:11:11;;;;;;;32.50;17.83;;;;;;;1.96;78.36;94992.09;4989709;28;20122;-81
2022/12/14 09:13:36;;;;;;;29.02;16.17;;;;;;;1.40;78.05;94910.44;4989097;28;20796;-82
2022/12/14 09:16:06;;;;;;;29.48;15.00;;;;;;;1.83;77.76;94977.41;4993662;28;20030;-81
2022/12/14 09:18:33;;;;;;;28.58;14.40;;;;;;;1.14;77.96;94953.38;4988293;28;20046;-83
2022/12/14 09:20:59;;;;;;;24.98;14.30;;;;;;;0.77;78.62;94857.84;4985140;28;20042;-82
2022/12/14 09:23:26;;;;;;;23.63;13.85;;;;;;;1.72;78.20;94973.72;4983557;28;20057;-81
2022/12/14 09:26:07;;;;;;;25.30;13.27;;;;;;;1.68;77.71;94953.50;4991787;28;20058;-80
2022/12/14 09:28:35;;;;;;;26.75;14.85;;;;;;;1.12;77.91;94866.66;5010122;28;20038;-82
2022/12/14 09:31:03;;;;;;;22.73;14.93;;;;;;;1.86;77.99;94987.41;4992753;28;20112;-84
2022/12/14 09:33:33;;;;;;;36.13;18.08;;;;;;;1.37;78.43;94897.84;4994830;28;20069;-83
2022/12/14 09:36:08;;;;;;;30.70;16.67;;;;;;;0.96;78.71;94803.78;4993611;28;20045;-86
2022/12/14 09:38:36;;;;;;;28.58;15.38;;;;;;;1.15;78.51;94820.97;4976975;28;20053;-81
2022/12/14 09:41:04;;;;;;;23.50;14.95;;;;;;;2.18;78.02;94959.16;4972414;28;20053;-82
2022/12/14 09:43:46;;;;;;;29.15;16.80;;;;;;;2.26;78.39;94964.06;4986158;28;20752;-81
2022/12/14 09:46:36;;;;;;;28.33;16.58;;;;;;;2.37;77.88;94955.38;4987129;28;20069;-81
2022/12/14 09:49:02;;;;;;;26.40;15.30;;;;;;;2.26;77.72;94949.16;4987142;28;20042;-80
2022/12/14 09:51:34;;;;;;;29.67;16.58;;;;;;;1.86;77.18;94888.84;4990255;28;20057;-81
2022/12/14 09:54:05;;;;;;;;;;;;;;;2.39;77.68;94960.41;4988382;28;20061;-81
2022/12/14 09:56:31;;;;;;;28.38;15.40;;;;;;;2.18;77.39;94902.38;4991011;28;20773;-84
2022/12/14 09:58:58;;;;;;;25.95;15.07;;;;;;;1.98;76.44;94843.59;4991548;28;20049;-82
2022/12/14 10:01:49;;;;;;;29.40;15.70;;;;;;;2.00;75.66;94870.31;4992911;28;20049;-81
2022/12/14 10:04:17;;;;;;;30.48;14.65;;;;;;;2.55;75.91;94946.63;4987914;28;20029;-83
2022/12/14 10:07:05;;;;;;;26.45;14.70;;;;;;;2.37;75.61;94939.69;4986447;28;20571;-83
2022/12/14 10:09:51;;;;;;;26.27;13.68;;;;;;;2.43;75.53;94940.63;4987795;28;20062;-82
2022/12/14 10:12:54;;;;;;;25.90;12.68;;;;;;;2.14;75.05;94918.75;4970469;28;20073;-82
2022/12/14 10:15:35;;;;;;;24.20;12.85;;;;;;;1.51;75.25;94802.56;4935046;28;20277;-81
2022/12/14 10:18:19;;;;;;;18.60;11.70;;;;;;;2.48;74.77;94935.47;4972138;28;20083;-81
2022/12/14 10:21:01;;;;;;;19.67;11.10;;;;;;;2.08;74.26;94849.03;4989005;28;20046;-81
2022/12/14 10:23:27;;;;;;;19.92;12.27;;;;;;;2.03;73.70;94826.19;4991338;28;20120;-81
2022/12/14 10:26:10;;;;;;;19.13;10.05;;;;;;;2.70;73.27;94926.81;4972017;28;20037;-82
2022/12/14 10:28:54;;;;;;;25.58;12.32;;;;;;;2.79;73.33;94921.22;4990450;28;20425;-80
2022/12/14 10:32:01;;;;;;;21.90;12.05;;;;;;;2.90;73.48;94923.03;4995475;28;20153;-82
2022/12/14 10:34:29;;;;;;;19.88;11.27;;;;;;;2.53;72.70;94829.06;4987784;28;20045;-82
2022/12/14 10:37:11;;;;;;;21.65;10.32;;;;;;;2.42;72.71;94806.34;4997860;28;20057;-81
2022/12/14 10:39:47;;;;;;;14.55;8.52;;;;;;;2.74;71.72;94908.03;4993229;28;20060;-81
2022/12/14 10:42:50;;;;;;;15.75;9.32;;;;;;;2.84;71.89;94880.19;4999533;28;20136;-82
2022/12/14 10:45:34;;;;;;;20.42;11.23;;;;;;;2.98;71.61;94901.69;5018767;28;20047;-81
2022/12/14 10:48:24;;;;;;;20.85;11.45;;;;;;;2.87;71.01;94844.91;5007015;28;20083;-81
2022/12/14 10:51:02;;;;;;;22.98;11.00;;;;;;;3.00;71.57;94887.34;5015414;28;20045;-81
2022/12/14 10:53:41;;;;;;;18.55;9.43;;;;;;;3.21;71.36;94890.31;5012950;28;20049;-82
2022/12/14 10:56:13;;;;;;;18.83;11.38;;;;;;;2.92;71.82;94858.09;4996038;28;20049;-81
2022/12/14 10:58:38;;;;;;;22.30;11.15;;;;;;;3.28;71.00;94893.63;5013855;28;20056;-81
2022/12/14 11:01:07;;;;;;;16.75;9.80;;;;;;;2.66;71.03;94805.25;5015207;28;20042;-81
2022/12/14 11:03:33;;;;;;;18.27;10.85;;;;;;;2.37;71.28;94808.84;5015618;28;20129;-82
2022/12/14 11:06:15;;;;;;;22.33;10.88;;;;;;;2.48;71.68;94802.78;5013178;28;20735;-82
2022/12/14 11:08:42;;;;;;;;;;;;;;;3.15;71.40;94875.53;5018678;28;20075;-81
2022/12/14 11:11:16;;;;;;;21.95;10.27;;;;;;;2.80;71.29;94824.09;5015288;28;19931;-83
2022/12/14 11:14:06;;;;;;;22.20;11.13;;;;;;;3.25;71.20;94873.13;4999384;28;20049;-82
2022/12/14 11:16:40;;;;;;;19.98;12.10;;;;;;;3.21;71.60;94877.22;4989441;28;21228;-82
2022/12/14 11:19:16;;;;;;;22.83;11.90;;;;;;;3.19;71.30;94860.94;5017106;28;20110;-84
2022/12/14 11:21:41;;;;;;;19.45;11.50;;;;;;;2.77;70.97;94798.38;5014906;28;20049;-86
2022/12/14 11:24:21;;;;;;;23.60;11.52;;;;;;;1.81;71.43;94687.41;5003543;28;20604;-84
2022/12/14 11:26:53;;;;;;;20.52;11.48;;;;;;;2.59;70.66;94767.94;5011473;28;20085;-86
2022/12/14 11:29:31;;;;;;;22.35;11.40;;;;;;;3.00;70.22;94807.94;5001171;28;20038;-84
2022/12/14 11:32:16;;;;;;;;;;;;;;;;;;;;;
2022/12/14 11:34:42;;;;;;;20.60;9.40;;;;;;;0.81;69.45;94428.31;5010548;28;20048;-83
2022/12/14 11:37:19;;;;;;;13.10;8.15;;;;;;;3.71;69.20;94865.00;5013176;28;20072;-82
2022/12/14 11:39:49;;;;;;;17.48;8.65;;;;;;;3.80;68.95;94857.53;5017905;28;20045;-83
2022/12/14 11:42:18;;;;;;;21.67;9.23;;;;;;;3.27;68.27;94761.78;5007124;28;20037;-83
2022/12/14 11:44:45;;;;;;;17.80;9.02;;;;;;;3.67;68.41;94815.88;4997218;28;20045;-83
2022/12/14 11:47:19;;;;;;;19.83;10.55;;;;;;;3.70;68.06;94810.16;4999766;28;20090;-83
2022/12/14 11:49:48;;;;;;;19.88;9.23;;;;;;;3.55;67.77;94774.00;4999552;28;20333;-83
2022/12/14 11:52:21;;;;;;;18.55;8.70;;;;;;;3.39;66.97;94756.44;5015718;28;20121;-82
2022/12/14 11:55:08;;;;;;;17.20;9.57;;;;;;;3.68;66.76;94801.72;4997934;28;20071;-82
2022/12/14 11:57:40;;;;;;;19.42;9.27;;;;;;;3.73;66.95;94820.97;5012128;28;20052;-82
2022/12/14 12:00:20;;;;;;;19.17;8.85;;;;;;;2.91;67.50;94704.56;5013176;28;20055;-81
2022/12/14 12:02:52;;;;;;;14.85;8.70;;;;;;;3.75;67.10;94839.88;5017107;28;20899;-82